Deatsville, Kentucky
Current Conditions -  °F | °C
As of 6:56 PM on Friday 28 Nov 2014 (Local Time) from KSDF Reporting Station
Overcast Overcast  
Wind Chill: -1°   Ceiling: 21000
Heat Index:   Visibility: 10mi
Dew Point: -7°   Wind: 8mph
Humidity: 50%   Direction: 140°SE
Pressure: 30.15"   Gusts: NA
Location:  37.9212°N, 85.4864°W
Report Text: KSDF 282356Z 14007KT 10SM FEW100 OVC210 03/M07 A3015 RMK AO2 SLP213 T00281067 10044 20022 58021
Loading
Personal Weather Stations






























Interactive Weather Map New forecast layout! Learn more

10-Day Weather Forecast

Advertisements
Track Severe Weather on mobile